createdAt,value
2023-05-16T00:01:09.642Z,98197.84
2023-05-16T00:03:38.435Z,98198.66
2023-05-16T00:06:06.009Z,98192.66
2023-05-16T00:08:32.969Z,98199.25
2023-05-16T00:10:59.835Z,98200.63
2023-05-16T00:13:26.804Z,98197.91
2023-05-16T00:15:55.007Z,98203.66
2023-05-16T00:18:23.034Z,98195.75
2023-05-16T00:20:50.749Z,98187.03
2023-05-16T00:23:17.670Z,98180.22
2023-05-16T00:25:45.103Z,98168.78
2023-05-16T00:28:11.963Z,98165.53
2023-05-16T00:30:38.896Z,98168.47
2023-05-16T00:33:05.875Z,98173.13
2023-05-16T00:35:32.951Z,98177.78
2023-05-16T00:37:59.817Z,98173.69
2023-05-16T00:40:27.279Z,98172.06
2023-05-16T00:42:54.365Z,98179.16
2023-05-16T00:45:21.360Z,98176.44
2023-05-16T00:47:48.484Z,98170.44
2023-05-16T00:50:15.493Z,98171.31
2023-05-16T00:52:43.139Z,98170.22
2023-05-16T00:55:11.041Z,98156.03
2023-05-16T00:57:38.856Z,98150.06
2023-05-16T01:00:07.299Z,98146.28
2023-05-16T01:02:34.956Z,98136.97
2023-05-16T01:05:02.814Z,98129.38
2023-05-16T01:07:29.944Z,98119.56
2023-05-16T01:09:57.601Z,98116.31
2023-05-16T01:12:49.953Z,98108.66
2023-05-16T01:15:28.914Z,98106.47
2023-05-16T01:17:56.273Z,98099.38
2023-05-16T01:20:42.924Z,98096.94
2023-05-16T01:23:27.913Z,98111.97
2023-05-16T01:26:18.683Z,98112.78
2023-05-16T01:28:46.980Z,98129.16
2023-05-16T01:31:14.573Z,98132.97
2023-05-16T01:33:42.114Z,98139.25
2023-05-16T01:36:37.092Z,98148.25
2023-05-16T01:39:27.287Z,98153.69
2023-05-16T01:42:03.228Z,98154.53
2023-05-16T01:44:42.032Z,98143.59
2023-05-16T01:47:13.826Z,98131.34
2023-05-16T01:50:03.821Z,98117.47
2023-05-16T01:52:54.035Z,98120.19
2023-05-16T01:55:29.722Z,98111.47
2023-05-16T01:57:59.089Z,98100.56
2023-05-16T02:00:26.149Z,98094.06
2023-05-16T02:02:53.074Z,98094.06
2023-05-16T02:05:19.977Z,98095.16
2023-05-16T02:07:47.029Z,98095.97
2023-05-16T02:10:14.208Z,98089.41
2023-05-16T02:12:41.092Z,98079.91
2023-05-16T02:15:08.999Z,98075.53
2023-05-16T02:17:35.941Z,98066.25
2023-05-16T02:20:07.106Z,98079.91
2023-05-16T02:22:34.240Z,98093.81
2023-05-16T02:25:03.378Z,98086.47
2023-05-16T02:27:30.684Z,98076.66
2023-05-16T02:29:57.618Z,98068.47
2023-05-16T02:32:25.066Z,98062.19
2023-05-16T02:34:52.294Z,98046.62
2023-05-16T02:37:19.197Z,98045.31
2023-05-16T02:39:46.131Z,98040.09
2023-05-16T02:42:13.439Z,98035.75
2023-05-16T02:44:40.542Z,98029.78
2023-05-16T02:47:07.738Z,98022.69
2023-05-16T02:49:34.690Z,98034.69
2023-05-16T02:52:01.635Z,98042.87
2023-05-16T02:54:28.561Z,98049.97
2023-05-16T02:56:55.516Z,98053.50
2023-05-16T02:59:22.415Z,98057.34
2023-05-16T03:01:49.399Z,98047.25
2023-05-16T03:04:16.904Z,98049.44
2023-05-16T03:06:44.152Z,98047.00
2023-05-16T03:09:11.134Z,98046.47
2023-05-16T03:11:38.143Z,98044.03
2023-05-16T03:14:05.921Z,98040.50
2023-05-16T03:16:33.115Z,98045.41
2023-05-16T03:19:00.272Z,98052.78
2023-05-16T03:21:27.418Z,98045.72
2023-05-16T03:23:55.227Z,98056.31
2023-05-16T03:26:22.925Z,98057.44
2023-05-16T03:28:49.824Z,98059.88
2023-05-16T03:31:17.232Z,98069.16
2023-05-16T03:33:44.223Z,98079.53
2023-05-16T03:36:11.458Z,98084.97
2023-05-16T03:38:38.464Z,98082.25
2023-05-16T03:41:05.533Z,98082.25
2023-05-16T03:43:32.511Z,98090.16
2023-05-16T03:46:01.700Z,98089.09
2023-05-16T03:48:28.780Z,98083.62
2023-05-16T03:50:55.864Z,98080.91
2023-05-16T03:53:22.768Z,98075.75
2023-05-16T03:55:49.670Z,98075.75
2023-05-16T03:58:16.855Z,98088.28
2023-05-16T04:00:43.866Z,98091.81
2023-05-16T04:03:11.481Z,98087.47
2023-05-16T04:05:38.489Z,98096.75
2023-05-16T04:08:05.506Z,98087.75
2023-05-16T04:10:32.540Z,98085.03
2023-05-16T04:12:59.450Z,98084.47
2023-05-16T04:15:26.598Z,98084.75
2023-05-16T04:17:53.964Z,98074.66
2023-05-16T04:20:21.246Z,98069.22
2023-05-16T04:22:48.420Z,98068.09
2023-05-16T04:25:15.484Z,98074.66
2023-05-16T04:27:42.418Z,98075.75
2023-05-16T04:30:11.418Z,98083.94
2023-05-16T04:32:38.406Z,98097.56
2023-05-16T04:35:05.717Z,98099.19
2023-05-16T04:37:32.692Z,98097.28
2023-05-16T04:39:59.588Z,98100.00
2023-05-16T04:42:26.956Z,98108.19
2023-05-16T04:44:54.386Z,98109.56
2023-05-16T04:47:21.560Z,98117.47
2023-05-16T04:49:48.540Z,98115.56
2023-05-16T04:52:15.450Z,98115.03
2023-05-16T04:54:42.524Z,98109.56
2023-05-16T04:57:09.470Z,98105.50
2023-05-16T04:59:36.380Z,98110.94
2023-05-16T05:02:04.456Z,98112.88
2023-05-16T05:04:31.585Z,98117.22
2023-05-16T05:06:58.520Z,98121.03
2023-05-16T05:09:26.142Z,98117.22
2023-05-16T05:11:53.180Z,98110.13
2023-05-16T05:14:20.049Z,98106.88
2023-05-16T05:16:47.166Z,98121.84
2023-05-16T05:19:14.121Z,98122.66
2023-05-16T05:21:41.131Z,98112.59
2023-05-16T05:24:08.120Z,98118.84
2023-05-16T05:26:35.224Z,98119.94
2023-05-16T05:29:05.894Z,98123.19
2023-05-16T05:31:35.079Z,98138.47
2023-05-16T05:34:03.276Z,98141.72
2023-05-16T05:36:31.017Z,98141.47
2023-05-16T05:38:57.992Z,98134.09
2023-05-16T05:41:24.800Z,98133.00
2023-05-16T05:43:51.705Z,98140.09
2023-05-16T05:46:18.764Z,98133.81
2023-05-16T05:48:45.583Z,98137.34
2023-05-16T05:51:14.391Z,98137.88
2023-05-16T05:53:44.839Z,98140.63
2023-05-16T05:56:11.757Z,98142.25
2023-05-16T05:58:41.928Z,98123.69
2023-05-16T06:01:08.762Z,98108.94
2023-05-16T06:03:35.842Z,98105.13
2023-05-16T06:06:04.058Z,98103.22
2023-05-16T06:08:31.108Z,98099.38
2023-05-16T06:10:57.927Z,98088.75
2023-05-16T06:13:24.716Z,98084.94
2023-05-16T06:15:52.700Z,98074.03
2023-05-16T06:18:20.242Z,98078.38
2023-05-16T06:20:47.555Z,98083.03
2023-05-16T06:23:14.484Z,98075.41
2023-05-16T06:25:41.284Z,98068.56
2023-05-16T06:28:08.173Z,98068.03
2023-05-16T06:30:35.007Z,98064.22
2023-05-16T06:33:01.988Z,98073.22
2023-05-16T06:35:29.013Z,98073.22
2023-05-16T06:37:56.197Z,98073.22
2023-05-16T06:40:23.100Z,98073.22
2023-05-16T06:42:50.020Z,98080.87
2023-05-16T06:45:16.940Z,98082.78
2023-05-16T06:47:43.874Z,98095.03
2023-05-16T06:50:11.067Z,98105.94
2023-05-16T06:52:37.993Z,98111.69
2023-05-16T06:55:05.318Z,98126.13
2023-05-16T06:57:32.176Z,98128.84
2023-05-16T06:59:59.030Z,98134.03
2023-05-16T07:02:26.328Z,98144.94
2023-05-16T07:04:53.325Z,98147.38
2023-05-16T07:07:20.117Z,98138.38
2023-05-16T07:09:47.014Z,98138.09
2023-05-16T07:12:13.896Z,98133.44
2023-05-16T07:14:41.784Z,98135.38
2023-05-16T07:17:09.142Z,98143.53
2023-05-16T07:19:36.184Z,98167.81
2023-05-16T07:22:02.995Z,98180.63
2023-05-16T07:24:29.810Z,98184.97
2023-05-16T07:26:56.602Z,98183.88
2023-05-16T07:29:23.404Z,98183.06
2023-05-16T07:31:50.357Z,98174.88
2023-05-16T07:34:17.302Z,98173.25
2023-05-16T07:36:44.121Z,98169.44
2023-05-16T07:39:10.921Z,98163.16
2023-05-16T07:41:37.772Z,98154.97
2023-05-16T07:44:04.558Z,98127.72
2023-05-16T07:46:31.377Z,98116.81
2023-05-16T07:48:58.286Z,98101.25
2023-05-16T07:51:25.175Z,98100.16
2023-05-16T07:53:52.212Z,98102.06
2023-05-16T07:56:19.038Z,98102.06
2023-05-16T07:58:46.072Z,98114.59
2023-05-16T08:01:13.043Z,98114.59
2023-05-16T08:03:40.014Z,98115.12
2023-05-16T08:06:07.142Z,98104.75
2023-05-16T08:08:34.096Z,98105.56
2023-05-16T08:11:00.961Z,98103.41
2023-05-16T08:13:27.813Z,98103.91
2023-05-16T08:15:54.771Z,98111.81
2023-05-16T08:18:22.651Z,98117.00
2023-05-16T08:20:49.836Z,98115.88
2023-05-16T08:23:16.657Z,98096.50
2023-05-16T08:25:43.515Z,98102.78
2023-05-16T08:28:10.528Z,98109.34
2023-05-16T08:30:37.291Z,98124.59
2023-05-16T08:33:05.215Z,98118.31
2023-05-16T08:35:32.685Z,98117.50
2023-05-16T08:37:59.524Z,98124.88
2023-05-16T08:40:27.437Z,98119.44
2023-05-16T08:42:54.550Z,98111.25
2023-05-16T08:45:23.575Z,98112.88
2023-05-16T08:47:54.449Z,98121.88
2023-05-16T08:50:22.125Z,98129.25
2023-05-16T08:52:52.635Z,98139.06
2023-05-16T08:55:21.302Z,98146.12
2023-05-16T08:57:51.066Z,98136.84
2023-05-16T09:00:19.377Z,98134.41
2023-05-16T09:02:46.742Z,98137.44
2023-05-16T09:05:15.457Z,98135.78
2023-05-16T09:07:43.873Z,98131.44
2023-05-16T09:10:11.729Z,98122.44
2023-05-16T09:12:40.592Z,98118.91
2023-05-16T09:15:09.612Z,98115.34
2023-05-16T09:17:43.384Z,98126.28
2023-05-16T09:20:11.250Z,98134.44
2023-05-16T09:22:38.900Z,98133.63
2023-05-16T09:25:08.579Z,98139.09
2023-05-16T09:27:41.294Z,98132.81
2023-05-16T09:30:08.922Z,98128.19
2023-05-16T09:32:35.836Z,98136.66
2023-05-16T09:35:02.684Z,98131.19
2023-05-16T09:37:30.752Z,98133.41
2023-05-16T09:39:57.742Z,98136.13
2023-05-16T09:42:25.811Z,98139.91
2023-05-16T09:44:54.537Z,98148.09
2023-05-16T09:47:22.323Z,98151.94
2023-05-16T09:49:53.823Z,98154.66
2023-05-16T09:52:20.884Z,98158.19
2023-05-16T09:54:51.164Z,98162.84
2023-05-16T09:57:19.828Z,98153.84
2023-05-16T09:59:46.745Z,98141.31
2023-05-16T10:02:13.994Z,98142.13
2023-05-16T10:04:41.555Z,98133.13
2023-05-16T10:07:09.924Z,98124.94
2023-05-16T10:09:39.625Z,98147.56
2023-05-16T10:12:09.094Z,98149.19
2023-05-16T10:14:37.772Z,98151.13
2023-05-16T10:17:06.678Z,98151.94
2023-05-16T10:19:37.681Z,98152.75
2023-05-16T10:22:06.441Z,98147.28
2023-05-16T10:24:48.347Z,98123.56
2023-05-16T10:27:18.609Z,98129.00
2023-05-16T10:29:54.296Z,98126.28
2023-05-16T10:32:24.529Z,98120.84
2023-05-16T10:34:51.884Z,98127.13
2023-05-16T10:37:18.794Z,98107.19
2023-05-16T10:39:46.362Z,98090.81
2023-05-16T10:42:18.321Z,98066.03
2023-05-16T10:44:54.705Z,98059.75
2023-05-16T10:47:29.527Z,98067.38
2023-05-16T10:49:56.404Z,98079.31
2023-05-16T10:52:33.923Z,98083.38
2023-05-16T10:55:03.986Z,98079.28
2023-05-16T10:57:33.199Z,98079.50
2023-05-16T11:00:01.955Z,98063.66
2023-05-16T11:02:33.133Z,98045.09
2023-05-16T11:05:01.864Z,98030.34
2023-05-16T11:07:34.490Z,98024.59
2023-05-16T11:10:06.845Z,98033.34
2023-05-16T11:12:45.113Z,98043.69
2023-05-16T11:15:19.104Z,98056.75
2023-05-16T11:17:46.526Z,98040.06
2023-05-16T11:20:27.752Z,98038.16
2023-05-16T11:23:17.088Z,98040.06
2023-05-16T11:25:57.346Z,98019.87
2023-05-16T11:28:26.964Z,98009.75
2023-05-16T11:30:57.677Z,98019.59
2023-05-16T11:33:25.257Z,98024.22
2023-05-16T11:36:14.666Z,98024.22
2023-05-16T11:38:44.068Z,98023.41
2023-05-16T11:41:11.811Z,98015.22
2023-05-16T11:43:45.607Z,98011.69
2023-05-16T11:46:14.199Z,98005.41
2023-05-16T11:48:41.726Z,97993.69
2023-05-16T11:51:10.134Z,97994.50
2023-05-16T11:53:38.353Z,97999.13
2023-05-16T11:56:08.282Z,97996.13
2023-05-16T11:58:35.550Z,97986.53
2023-05-16T12:01:04.857Z,97992.00
2023-05-16T12:03:33.844Z,97998.28
2023-05-16T12:06:01.057Z,97999.06
2023-05-16T12:08:27.912Z,98008.88
2023-05-16T12:10:54.979Z,98009.19
2023-05-16T12:13:24.512Z,98006.47
2023-05-16T12:15:52.932Z,97996.06
2023-05-16T12:18:21.568Z,97994.16
2023-05-16T12:20:48.740Z,97994.97
2023-05-16T12:23:16.458Z,97995.78
2023-05-16T12:25:47.803Z,97996.56
2023-05-16T12:28:15.452Z,98000.41
2023-05-16T12:30:44.393Z,97992.22
2023-05-16T12:33:15.869Z,97994.16
2023-05-16T12:35:44.997Z,97982.41
2023-05-16T12:38:14.367Z,97979.16
2023-05-16T12:40:43.543Z,97979.16
2023-05-16T12:43:14.638Z,97966.09
2023-05-16T12:45:42.922Z,97959.53
2023-05-16T12:48:14.255Z,97958.72
2023-05-16T12:50:41.894Z,97964.47
2023-05-16T12:53:14.139Z,97971.84
2023-05-16T12:55:41.846Z,97974.06
2023-05-16T12:58:10.379Z,97967.78
2023-05-16T13:00:38.041Z,97952.22
2023-05-16T13:03:08.389Z,97963.16
2023-05-16T13:05:36.349Z,97950.31
2023-05-16T13:08:04.040Z,97942.13
2023-05-16T13:10:31.141Z,97941.03
2023-05-16T13:13:00.064Z,97944.84
2023-05-16T13:15:27.917Z,97941.59
2023-05-16T13:17:55.215Z,97935.34
2023-05-16T13:20:22.228Z,97941.59
2023-05-16T13:22:49.314Z,97945.16
2023-05-16T13:25:16.317Z,97945.44
2023-05-16T13:27:43.291Z,97938.34
2023-05-16T13:30:10.473Z,97938.34
2023-05-16T13:32:38.220Z,97935.63
2023-05-16T13:35:06.186Z,97936.72
2023-05-16T13:37:33.466Z,97947.94
2023-05-16T13:40:00.361Z,97937.03
2023-05-16T13:42:27.539Z,97951.47
2023-05-16T13:44:54.479Z,97960.47
2023-05-16T13:47:21.788Z,97962.09
2023-05-16T13:49:48.970Z,97957.47
2023-05-16T13:52:16.520Z,97932.09
2023-05-16T13:54:43.388Z,97922.81
2023-05-16T13:57:10.378Z,97911.06
2023-05-16T14:00:05.622Z,97913.81
2023-05-16T14:02:26.217Z,97920.37
2023-05-16T14:04:53.713Z,97916.00
2023-05-16T14:07:20.621Z,97909.75
2023-05-16T14:09:47.520Z,97898.00
2023-05-16T14:12:14.417Z,97915.19
2023-05-16T14:14:41.488Z,97905.91
2023-05-16T14:17:08.394Z,97898.00
2023-05-16T14:19:35.809Z,97890.63
2023-05-16T14:22:02.769Z,97884.38
2023-05-16T14:24:29.653Z,97884.09
2023-05-16T14:26:56.528Z,97884.88
2023-05-16T14:29:24.346Z,97891.47
2023-05-16T14:31:51.394Z,97897.44
2023-05-16T14:34:18.263Z,97891.16
2023-05-16T14:36:45.113Z,97901.25
2023-05-16T14:39:12.344Z,97896.91
2023-05-16T14:41:39.239Z,97904.28
2023-05-16T14:44:06.138Z,97902.66
2023-05-16T14:46:33.930Z,97901.81
2023-05-16T14:49:00.862Z,97915.75
2023-05-16T14:51:27.748Z,97901.31
2023-05-16T14:53:54.623Z,97905.94
2023-05-16T14:56:22.065Z,97909.47
2023-05-16T14:58:48.860Z,97907.84
2023-05-16T15:01:16.737Z,97911.41
2023-05-16T15:03:54.658Z,97908.97
2023-05-16T15:06:22.487Z,97908.97
2023-05-16T15:08:49.425Z,97914.41
2023-05-16T15:11:16.329Z,97917.44
2023-05-16T15:13:43.184Z,97919.94
2023-05-16T15:16:10.155Z,97922.38
2023-05-16T15:18:37.085Z,97918.84
2023-05-16T15:21:04.106Z,97906.31
2023-05-16T15:23:30.923Z,97917.50
2023-05-16T15:25:57.841Z,97902.25
2023-05-16T15:28:24.664Z,97891.63
2023-05-16T15:30:51.948Z,97884.53
2023-05-16T15:33:18.750Z,97870.38
2023-05-16T15:35:45.688Z,97870.69
2023-05-16T15:38:12.729Z,97861.97
2023-05-16T15:40:39.565Z,97854.09
2023-05-16T15:43:06.576Z,97857.63
2023-05-16T15:45:33.908Z,97861.97
2023-05-16T15:48:02.051Z,97853.53
2023-05-16T15:50:29.014Z,97859.84
2023-05-16T15:52:58.387Z,97868.81
2023-05-16T15:55:25.688Z,97874.00
2023-05-16T15:57:56.987Z,97877.00
2023-05-16T16:00:24.994Z,97885.19
2023-05-16T16:02:52.413Z,97881.66
2023-05-16T16:05:19.374Z,97868.00
2023-05-16T16:07:46.747Z,97875.94
2023-05-16T16:10:13.898Z,97865.84
2023-05-16T16:12:40.838Z,97880.59
2023-05-16T16:15:10.043Z,97875.94
2023-05-16T16:17:37.131Z,97874.03
2023-05-16T16:20:04.447Z,97871.59
2023-05-16T16:22:31.783Z,97872.41
2023-05-16T16:24:58.659Z,97871.59
2023-05-16T16:27:26.398Z,97878.16
2023-05-16T16:29:54.177Z,97868.06
2023-05-16T16:32:21.630Z,97871.06
2023-05-16T16:34:49.465Z,97866.72
2023-05-16T16:37:19.306Z,97853.38
2023-05-16T16:39:47.136Z,97844.37
2023-05-16T16:42:14.938Z,97838.13
2023-05-16T16:44:42.855Z,97855.28
2023-05-16T16:47:10.720Z,97843.56
2023-05-16T16:49:38.517Z,97843.06
2023-05-16T16:52:06.583Z,97848.50
2023-05-16T16:54:34.210Z,97841.72
2023-05-16T16:57:02.357Z,97850.47
2023-05-16T16:59:31.236Z,97845.03
2023-05-16T17:01:59.080Z,97842.31
2023-05-16T17:04:27.019Z,97843.13
2023-05-16T17:06:54.767Z,97854.03
2023-05-16T17:09:23.547Z,97866.84
2023-05-16T17:11:51.713Z,97880.78
2023-05-16T17:14:19.048Z,97891.38
2023-05-16T17:16:46.883Z,97899.03
2023-05-16T17:19:16.067Z,97902.88
2023-05-16T17:21:45.374Z,97901.25
2023-05-16T17:24:18.282Z,97889.81
2023-05-16T17:26:47.386Z,97883.53
2023-05-16T17:29:16.653Z,97886.53
2023-05-16T17:31:44.855Z,97886.84
2023-05-16T17:34:13.958Z,97893.09
2023-05-16T17:36:41.819Z,97891.19
2023-05-16T17:39:11.316Z,97893.66
2023-05-16T17:41:39.729Z,97881.16
2023-05-16T17:44:08.107Z,97883.88
2023-05-16T17:46:40.077Z,97887.47
2023-05-16T17:49:08.209Z,97901.91
2023-05-16T17:51:53.884Z,97902.47
2023-05-16T17:54:23.062Z,97912.56
2023-05-16T17:56:51.740Z,97917.22
2023-05-16T17:59:20.195Z,97916.41
2023-05-16T18:01:48.575Z,97908.50
2023-05-16T18:04:18.451Z,97917.50
2023-05-16T18:06:48.479Z,97902.25
2023-05-16T18:09:16.354Z,97880.44
2023-05-16T18:11:44.740Z,97862.47
2023-05-16T18:14:14.142Z,97842.06
2023-05-16T18:16:42.326Z,97839.88
2023-05-16T18:19:11.137Z,97857.34
2023-05-16T18:21:41.002Z,97862.53
2023-05-16T18:24:10.881Z,97869.91
2023-05-16T18:26:39.590Z,97892.53
2023-05-16T18:29:11.277Z,97902.63
2023-05-16T18:31:44.205Z,97898.78
2023-05-16T18:34:13.300Z,97905.63
2023-05-16T18:36:41.332Z,97915.19
2023-05-16T18:39:11.289Z,97918.72
2023-05-16T18:41:40.110Z,97929.34
2023-05-16T18:44:11.142Z,97938.03
2023-05-16T18:46:40.371Z,97931.78
2023-05-16T18:49:08.694Z,97935.59
2023-05-16T18:51:37.069Z,97951.13
2023-05-16T18:54:05.726Z,97959.03
2023-05-16T18:56:33.953Z,97949.22
2023-05-16T18:59:02.198Z,97955.25
2023-05-16T19:01:30.540Z,97959.88
2023-05-16T19:04:00.871Z,97961.00
2023-05-16T19:06:29.574Z,97962.62
2023-05-16T19:08:59.941Z,97962.62
2023-05-16T19:11:28.562Z,97939.44
2023-05-16T19:13:56.384Z,97935.37
2023-05-16T19:16:24.904Z,97932.12
2023-05-16T19:18:53.098Z,97925.03
2023-05-16T19:21:22.227Z,97917.69
2023-05-16T19:23:50.477Z,97905.16
2023-05-16T19:26:22.299Z,97895.34
2023-05-16T19:28:51.152Z,97890.19
2023-05-16T19:31:20.124Z,97870.31
2023-05-16T19:33:49.586Z,97871.12
2023-05-16T19:36:17.747Z,97874.94
2023-05-16T19:38:45.829Z,97873.31
2023-05-16T19:41:12.793Z,97875.75
2023-05-16T19:43:39.716Z,97867.87
2023-05-16T19:46:06.551Z,97874.94
2023-05-16T19:48:33.525Z,97870.88
2023-05-16T19:51:00.634Z,97868.72
2023-05-16T19:53:27.469Z,97873.91
2023-05-16T19:55:54.366Z,97876.63
2023-05-16T19:58:21.339Z,97868.44
2023-05-16T20:00:48.228Z,97872.53
2023-05-16T20:03:15.623Z,97874.19
2023-05-16T20:05:42.617Z,97892.41
2023-05-16T20:08:09.713Z,97897.84
2023-05-16T20:10:36.810Z,97906.03
2023-05-16T20:13:03.701Z,97898.69
2023-05-16T20:15:30.838Z,97908.50
2023-05-16T20:17:57.923Z,97907.94
2023-05-16T20:20:25.009Z,97910.41
2023-05-16T20:22:51.916Z,97910.66
2023-05-16T20:25:18.847Z,97900.31
2023-05-16T20:27:45.877Z,97898.94
2023-05-16T20:30:13.296Z,97906.00
2023-05-16T20:32:40.639Z,97904.69
2023-05-16T20:35:10.221Z,97904.16
2023-05-16T20:37:37.442Z,97890.78
2023-05-16T20:40:06.126Z,97891.59
2023-05-16T20:42:33.312Z,97886.16
2023-05-16T20:45:00.817Z,97888.06
2023-05-16T20:47:28.272Z,97891.06
2023-05-16T20:49:55.255Z,97879.06
2023-05-16T20:52:23.345Z,97887.25
2023-05-16T20:54:50.550Z,97897.34
2023-05-16T20:57:18.071Z,97883.72
2023-05-16T20:59:44.991Z,97888.88
2023-05-16T21:02:11.927Z,97897.34
2023-05-16T21:04:39.157Z,97896.81
2023-05-16T21:07:08.216Z,97913.16
2023-05-16T21:09:37.073Z,97920.22
2023-05-16T21:12:04.611Z,97917.50
2023-05-16T21:14:31.484Z,97918.59
2023-05-16T21:16:58.324Z,97933.84
2023-05-16T21:19:25.455Z,97927.59
2023-05-16T21:21:52.487Z,97935.47
2023-05-16T21:24:19.421Z,97929.22
2023-05-16T21:26:46.275Z,97933.56
2023-05-16T21:29:13.130Z,97932.75
2023-05-16T21:31:40.439Z,97927.31
2023-05-16T21:34:08.593Z,97931.94
2023-05-16T21:36:36.003Z,97925.97
2023-05-16T21:39:02.856Z,97936.56
2023-05-16T21:41:29.795Z,97939.28
2023-05-16T21:43:56.713Z,97934.94
2023-05-16T21:46:23.583Z,97940.38
2023-05-16T21:48:50.572Z,97946.66
2023-05-16T21:51:18.812Z,97945.56
2023-05-16T21:53:48.572Z,97945.56
2023-05-16T21:56:15.648Z,97953.72
2023-05-16T21:58:42.659Z,97948.28
2023-05-16T22:01:10.080Z,97942.31
2023-05-16T22:03:37.008Z,97942.03
2023-05-16T22:06:04.085Z,97945.56
2023-05-16T22:08:31.100Z,97942.03
2023-05-16T22:10:58.020Z,97948.28
2023-05-16T22:13:24.866Z,97948.28
2023-05-16T22:16:03.353Z,97948.28
2023-05-16T22:18:31.526Z,97959.19
2023-05-16T22:20:58.522Z,97952.09
2023-05-16T22:23:25.457Z,97955.34
2023-05-16T22:25:52.376Z,97961.62
2023-05-16T22:28:19.302Z,97960.25
2023-05-16T22:30:46.209Z,97962.69
2023-05-16T22:33:13.162Z,97959.16
2023-05-16T22:35:40.072Z,97955.91
2023-05-16T22:38:06.929Z,97956.44
2023-05-16T22:40:33.840Z,97958.87
2023-05-16T22:43:00.725Z,97967.63
2023-05-16T22:45:27.991Z,97970.34
2023-05-16T22:47:55.048Z,97968.69
2023-05-16T22:50:22.005Z,97967.63
2023-05-16T22:52:48.980Z,97967.63
2023-05-16T22:55:15.849Z,97967.63
2023-05-16T22:57:44.151Z,97969.53
2023-05-16T23:00:11.546Z,97971.97
2023-05-16T23:02:38.525Z,97972.25
2023-05-16T23:05:05.865Z,97973.31
2023-05-16T23:07:32.831Z,97969.78
2023-05-16T23:10:00.160Z,97972.50
2023-05-16T23:12:27.101Z,97971.41
2023-05-16T23:14:53.924Z,97971.69
2023-05-16T23:17:21.031Z,97970.06
2023-05-16T23:19:47.894Z,97972.25
2023-05-16T23:22:14.848Z,97960.50
2023-05-16T23:24:41.722Z,97970.88
2023-05-16T23:27:08.899Z,97971.69
2023-05-16T23:29:35.774Z,97963.53
2023-05-16T23:32:02.691Z,97970.06
2023-05-16T23:34:29.570Z,97981.78
2023-05-16T23:36:56.413Z,97985.59
2023-05-16T23:39:23.296Z,97984.50
2023-05-16T23:41:50.073Z,97987.22
2023-05-16T23:44:16.996Z,97982.06
2023-05-16T23:46:43.841Z,97975.81
2023-05-16T23:49:10.641Z,97983.97
2023-05-16T23:51:52.785Z,97977.72
2023-05-16T23:54:23.464Z,97984.78
2023-05-16T23:56:51.179Z,97977.72
2023-05-16T23:59:19.246Z,97986.69
